Latest Coastal Weather Observations for Weipa

IDQ60701

Issued at 5:32 pm EST Tuesday 16 August 2022 (issued every 10 minutes, with the page automatically refreshed every 10 minutes)

About coastal observations | Map of coastal stations | Coastal observations for QLD | Marine services | Other Formats
Station Details ID: 027045 Name: WEIPA AERO Lat: -12.68 Lon: 141.92 Height: 17.96 m
Data from the previous 72 hours. | See also: Recent months at Weipa
Date/Time
EST
Wind Sea
Height
m
Swell Vis
km
Cloud Weather Temp
°C
Press
MSL
hPa
Rain since
9am
mm
Dir  Spd
kts
Gust
kts
Height
m
Period
s
Dir
16/05:30pm WSW 6 9 - - - - 10 Clear - 27.2 1010.9 0.0
16/05:00pm WSW 7 10 - - - - 10 - - 28.1 1010.8 0.0
16/04:30pm WSW 7 11 - - - - 10 - - 28.7 1010.6 0.0
16/04:00pm WSW 7 12 - - - - 10 Partly cloudy - 29.8 1010.4 0.0
16/03:30pm WSW 8 12 - - - - 10 - - 30.1 1010.5 0.0
16/03:00pm WSW 9 12 - - - - 10 Mostly clear - 30.1 1010.6 0.0
16/02:30pm SW 7 10 - - - - 10 - - 31.3 1010.8 0.0
16/02:00pm SSW 5 9 - - - - 10 Partly cloudy - 31.2 1011.1 0.0
16/01:30pm SE 8 13 - - - - 10 Partly cloudy - 32.0 1011.8 0.0
16/01:00pm S 5 9 - - - - 10 Partly cloudy - 30.1 1012.2 0.0
16/12:30pm ESE 8 14 - - - - 10 Partly cloudy - 30.9 1012.7 0.0
16/12:00pm ESE 7 12 - - - - 10 - - 29.7 1013.3 0.0
16/11:30am SE 6 11 - - - - 10 Partly cloudy - 28.6 1013.8 0.0
16/11:00am ESE 8 13 - - - - 10 Partly cloudy - 28.2 1014.2 0.0
16/10:30am ESE 7 11 - - - - 10 Partly cloudy - 26.7 1014.6 0.0
16/10:00am ESE 7 10 - - - - 10 Partly cloudy - 26.1 1014.8 0.0
16/09:30am E 7 11 - - - - 10 Partly cloudy - 26.5 1014.7 0.0
16/09:00am E 6 8 - - - - 10 - - 25.7 1014.5 0.0
16/08:30am ESE 6 8 - - - - 10 - - 24.9 1014.3 0.0
16/08:00am E 5 6 - - - - 10 - - 22.7 1013.9 0.0
16/07:30am E 3 4 - - - - 10 Partly cloudy - 21.4 1013.6 0.0
16/07:00am CALM 0 0 - - - - 10 Partly cloudy - 19.8 1013.3 0.0
16/06:30am SE 3 4 - - - - 10 - - 19.5 1012.8 0.0
16/06:00am SE 3 4 - - - - 10 - - 19.8 1012.3 0.0
16/05:30am CALM 0 0 - - - - 10 Partly cloudy - 20.4 1012.1 0.0
16/05:00am SSE 3 4 - - - - 10 - - 20.2 1011.9 0.0
16/04:30am SE 4 5 - - - - 10 - - 20.9 1011.7 0.0
16/04:00am E 4 5 - - - - 10 - - 21.7 1011.8 0.0
16/03:30am E 4 5 - - - - 10 - - 22.2 1011.8 0.0
16/03:00am ESE 6 7 - - - - 10 Mostly cloudy - 22.7 1012.0 0.0
16/02:30am ESE 5 6 - - - - 10 Cloudy - 23.3 1012.2 0.0
16/02:00am ESE 5 7 - - - - 10 Cloudy - 23.2 1012.3 0.0
16/01:30am CALM 0 0 - - - - 10 Cloudy - 22.8 1012.4 0.0
16/01:00am SSE 3 5 - - - - 10 Cloudy - 22.6 1012.7 0.0
16/12:30am SE 3 4 - - - - 10 Partly cloudy - 22.0 1012.9 0.0
16/12:00am CALM 0 0 - - - - 10 - - 21.6 1012.7 0.0
 
Date/Time
EST
Wind Sea
Height
m
Swell Vis
km
Cloud Weather Temp
°C
Press
MSL
hPa
Rain since
9am
mm
Dir  Spd
kts
Gust
kts
Height
m
Period
s
Dir
15/11:30pm CALM 0 0 - - - - 10 - - 22.1 1012.5 0.0
15/11:00pm CALM 0 0 - - - - 10 Partly cloudy - 22.6 1012.7 0.0
15/10:30pm SSE 3 5 - - - - 10 Partly cloudy - 23.5 1012.9 0.0
15/10:00pm ESE 5 6 - - - - 10 Partly cloudy - 23.7 1012.6 0.0
15/09:30pm ENE 4 6 - - - - 10 Partly cloudy - 23.6 1012.4 0.0
15/09:00pm SSE 3 5 - - - - 10 Partly cloudy - 23.4 1011.8 0.0
15/08:30pm SSW 3 5 - - - - 10 Partly cloudy - 23.4 1011.3 0.0
15/08:00pm SW 3 6 - - - - 10 - - 23.9 1010.9 0.0
15/07:30pm SW 3 5 - - - - 10 - - 24.3 1010.4 0.0
15/07:00pm WSW 4 8 - - - - 10 - - 24.8 1010.0 0.0
15/06:30pm W 5 7 - - - - 10 - - 25.4 1009.7 0.0
15/06:00pm W 5 8 - - - - 10 - - 26.5 1009.4 0.0
15/05:30pm W 6 10 - - - - 10 - - 27.5 1009.3 0.0
15/05:00pm W 7 10 - - - - 10 - - 28.5 1009.1 0.0
15/04:30pm W 7 11 - - - - 10 - - 29.4 1009.0 0.0
15/04:00pm WSW 7 10 - - - - 10 - - 29.5 1008.9 0.0
15/03:30pm WSW 7 11 - - - - 10 - - 29.5 1009.1 0.0
15/03:00pm WSW 8 12 - - - - 10 - - 29.7 1009.4 0.0
15/02:30pm W 10 14 - - - - 10 Partly cloudy - 29.9 1009.9 0.0
15/02:00pm S 5 9 - - - - 10 Partly cloudy - 31.1 1010.2 0.0
15/01:30pm E 5 8 - - - - 10 - - 31.7 1010.5 0.0
15/01:00pm ESE 7 11 - - - - 10 - - 31.5 1010.8 0.0
15/12:30pm E 7 10 - - - - 10 - - 31.3 1011.3 0.0
15/12:00pm ENE 9 13 - - - - 10 - - 31.2 1011.7 0.0
15/11:30am ENE 8 12 - - - - 10 - - 29.5 1012.1 0.0
15/11:00am E 9 13 - - - - 10 - - 28.9 1012.6 0.0
15/10:30am ENE 8 12 - - - - 10 - - 28.3 1012.9 0.0
15/10:00am ESE 9 14 - - - - 10 - - 27.6 1013.2 0.0
15/09:30am E 11 14 - - - - 10 - - 26.3 1013.3 0.0
15/09:00am E 8 11 - - - - 10 - - 25.5 1013.5 0.0
15/08:30am ESE 8 11 - - - - 10 - - 23.9 1013.3 0.0
15/08:00am SSE 4 5 - - - - 10 - - 22.3 1013.2 0.0
15/07:30am SSE 3 4 - - - - 10 - - 20.2 1012.8 0.0
15/07:00am S 4 5 - - - - 10 - - 19.0 1012.6 0.0
15/06:30am S 2 4 - - - - 10 - - 19.3 1012.3 0.0
15/06:00am CALM 0 0 - - - - 10 Mostly clear - 20.1 1012.0 0.0
15/05:30am S 3 4 - - - - 10 - - 20.2 1012.0 0.0
15/05:00am SE 3 4 - - - - 10 - - 21.1 1011.7 0.0
15/04:30am SE 4 5 - - - - 10 Partly cloudy - 21.6 1011.7 0.0
15/04:00am S 4 6 - - - - 10 Partly cloudy - 21.8 1011.8 0.0
15/03:30am SSE 4 5 - - - - 10 Partly cloudy - 22.1 1011.8 0.0
15/03:00am SE 4 5 - - - - 10 Cloudy - 22.9 1011.9 0.0
15/02:30am S 4 5 - - - - 10 Partly cloudy - 22.4 1011.9 0.0
15/02:00am SSE 4 5 - - - - 10 Cloudy - 22.7 1012.1 0.0
15/01:30am SSE 4 4 - - - - 10 Cloudy - 22.7 1012.3 0.0
15/01:00am SSE 4 5 - - - - 10 Cloudy - 22.9 1012.3 0.0
15/12:30am SSE 4 5 - - - - 10 Partly cloudy - 21.6 1012.4 0.0
15/12:00am SE 3 4 - - - - 10 Partly cloudy - 21.7 1012.5 0.0
 
Date/Time
EST
Wind Sea
Height
m
Swell Vis
km
Cloud Weather Temp
°C
Press
MSL
hPa
Rain since
9am
mm
Dir  Spd
kts
Gust
kts
Height
m
Period
s
Dir
14/11:30pm SSE 3 4 - - - - 10 - - 22.2 1012.7 0.0
14/11:00pm SE 3 4 - - - - 10 - - 23.0 1012.8 0.0
14/10:30pm CALM 0 0 - - - - 10 Partly cloudy - 23.4 1012.6 0.0
14/10:00pm SSW 4 5 - - - - 10 Cloudy - 24.5 1012.6 0.0
14/09:30pm SE 4 6 - - - - 10 Partly cloudy - 25.2 1012.5 0.0
14/09:00pm CALM 0 4 - - - - 10 Partly cloudy - 24.3 1012.1 0.0
14/08:30pm NE 1 5 - - - - 10 Partly cloudy - 25.0 1011.7 0.0
14/08:00pm E 4 6 - - - - 10 Partly cloudy - 25.3 1011.2 0.0
14/07:30pm SSW 4 6 - - - - 10 Partly cloudy - 25.3 1010.6 0.0
14/07:00pm SW 5 8 - - - - 10 - - 25.6 1010.2 0.0
14/06:30pm WSW 4 6 - - - - 10 - - 26.0 1010.1 0.0
14/06:00pm WSW 5 9 - - - - 10 - - 26.8 1010.0 0.0
14/05:30pm WSW 6 11 - - - - 10 - - 27.6 1009.7 0.0
14/05:00pm WSW 7 11 - - - - 10 - - 28.1 1009.6 0.0
14/04:30pm WSW 8 14 - - - - 10 Partly cloudy - 28.4 1009.5 0.0
14/04:00pm W 10 15 - - - - 10 - - 28.9 1009.4 0.0
14/03:30pm WSW 8 12 - - - - 10 Partly cloudy - 29.6 1009.3 0.0
14/03:00pm WSW 8 12 - - - - 10 Mostly clear - 30.2 1009.5 0.0
14/02:30pm WSW 7 14 - - - - 10 Partly cloudy - 30.4 1009.9 0.0
14/02:00pm SE 7 11 - - - - 10 Partly cloudy - 30.7 1010.3 0.0
14/01:30pm ESE 7 14 - - - - 10 Partly cloudy - 31.6 1010.7 0.0
14/01:00pm SE 6 9 - - - - 10 Partly cloudy - 30.7 1011.1 0.0
14/12:30pm S 8 13 - - - - 10 Partly cloudy - 29.1 1011.5 0.0
14/12:00pm SSW 7 11 - - - - 10 Partly cloudy - 29.1 1012.1 0.0
14/11:30am SW 6 11 - - - - 10 Partly cloudy - 28.9 1012.4 0.0
14/11:00am SE 7 12 - - - - 10 Partly cloudy - 29.2 1012.9 0.0
14/10:30am ESE 8 11 - - - - 10 - - 28.4 1013.3 0.0
14/10:00am ESE 8 11 - - - - 10 - - 27.6 1013.4 0.0
14/09:30am SE 7 10 - - - - 10 - - 26.7 1013.5 0.0
14/09:00am SSE 6 8 - - - - 10 - - 25.3 1013.4 0.0
14/08:30am SSE 5 6 - - - - 10 - - 23.6 1013.2 0.0
14/08:00am SSE 4 5 - - - - 10 - - 21.7 1013.0 0.0
14/07:30am CALM 0 0 - - - - 10 - - 20.4 1012.9 0.0
14/07:00am CALM 0 0 - - - - 10 - - 18.5 1012.6 0.0
14/06:30am ESE 2 3 - - - - 10 - - 19.0 1012.4 0.0
14/06:00am ESE 3 4 - - - - 10 - - 19.2 1012.4 0.0
14/05:30am E 3 3 - - - - 10 - - 19.5 1012.3 0.0
14/05:00am E 3 4 - - - - 10 - - 19.5 1012.3 0.0
14/04:30am CALM 0 0 - - - - 10 - - 19.4 1012.3 0.0
14/04:00am SSE 3 4 - - - - 10 - - 19.4 1012.3 0.0
14/03:30am SE 3 4 - - - - 10 - - 20.1 1012.4 0.0
14/03:00am SE 4 5 - - - - 10 - - 20.4 1012.6 0.0
14/02:30am ESE 1 4 - - - - 10 - - 20.5 1012.7 0.0
14/02:00am CALM 0 0 - - - - 10 - - 20.4 1012.8 0.0
14/01:30am CALM 0 0 - - - - 10 - - 20.5 1013.0 0.0
14/01:00am CALM 0 0 - - - - 10 - - 21.0 1013.0 0.0
14/12:30am CALM 0 0 - - - - 10 - - 21.2 1013.3 0.0
14/12:00am CALM 0 0 - - - - 10 - - 21.5 1013.3 0.0
 
Date/Time
EST
Wind Sea
Height
m
Swell Vis
km
Cloud Weather Temp
°C
Press
MSL
hPa
Rain since
9am
mm
Dir  Spd
kts
Gust
kts
Height
m
Period
s
Dir
13/11:30pm CALM 0 0 - - - - 10 - - 21.9 1013.3 0.0
13/11:00pm CALM 0 0 - - - - 10 - - 22.2 1013.2 0.0
13/10:30pm CALM 0 0 - - - - 10 - - 22.5 1013.3 0.0
13/10:00pm SE 2 3 - - - - 10 - - 22.9 1013.2 0.0
13/09:30pm CALM 0 0 - - - - 10 - - 23.2 1013.0 0.0
13/09:00pm SSW 3 4 - - - - 10 - - 23.8 1012.9 0.0
13/08:30pm SW 3 4 - - - - 10 - - 24.3 1012.6 0.0
13/08:00pm SW 2 4 - - - - 10 - - 24.7 1012.1 0.0
13/07:30pm WSW 3 5 - - - - 10 - - 25.2 1011.8 0.0
13/07:00pm W 4 6 - - - - 10 - - 25.6 1011.5 0.0
13/06:30pm WNW 4 6 - - - - 10 - - 26.4 1011.2 0.0
13/06:00pm NW 7 9 - - - - 10 - - 27.5 1010.9 0.0

Other formats

Comma delimited format used in spreadsheet applications
http://www.bom.gov.au/fwo/IDQ60701/IDQ60701.94170.axf

JavaScript Object Notation format (JSON) in row-major order
http://www.bom.gov.au/fwo/IDQ60701/IDQ60701.94170.json

Data quality

Most of these data are generated automatically and are frequently updated. Quality checks on data are not normally performed. It is possible for incorrect values to appear. Refer to information at About Latest Weather Observations and please check the disclaimer before using these data.